sensor_id;sensor_type;location;lat;lon;timestamp;temperature;humidity
52211;DHT22;38179;52.756;6.906;2022-07-06T00:01:32;13.70;99.90
52211;DHT22;38179;52.756;6.906;2022-07-06T00:03:58;13.60;99.90
52211;DHT22;38179;52.756;6.906;2022-07-06T00:06:24;13.60;99.90
52211;DHT22;38179;52.756;6.906;2022-07-06T00:08:50;13.60;99.90
52211;DHT22;38179;52.756;6.906;2022-07-06T00:11:16;13.50;99.90
52211;DHT22;38179;52.756;6.906;2022-07-06T00:13:42;13.50;99.90
52211;DHT22;38179;52.756;6.906;2022-07-06T00:16:08;13.50;99.90
52211;DHT22;38179;52.756;6.906;2022-07-06T00:18:34;13.50;99.90
52211;DHT22;38179;52.756;6.906;2022-07-06T00:21:00;13.60;99.90
52211;DHT22;38179;52.756;6.906;2022-07-06T00:23:26;13.60;99.90
52211;DHT22;38179;52.756;6.906;2022-07-06T00:25:52;13.50;99.90
52211;DHT22;38179;52.756;6.906;2022-07-06T00:28:17;13.50;99.90
52211;DHT22;38179;52.756;6.906;2022-07-06T00:30:43;13.60;99.90
52211;DHT22;38179;52.756;6.906;2022-07-06T00:33:09;13.60;99.90
52211;DHT22;38179;52.756;6.906;2022-07-06T00:35:35;13.60;99.90
52211;DHT22;38179;52.756;6.906;2022-07-06T00:38:01;13.60;99.90
52211;DHT22;38179;52.756;6.906;2022-07-06T00:40:27;13.60;99.90
52211;DHT22;38179;52.756;6.906;2022-07-06T00:42:56;13.60;99.90
52211;DHT22;38179;52.756;6.906;2022-07-06T00:45:22;13.60;99.90
52211;DHT22;38179;52.756;6.906;2022-07-06T00:47:48;13.60;99.90
52211;DHT22;38179;52.756;6.906;2022-07-06T00:50:16;13.60;99.90
52211;DHT22;38179;52.756;6.906;2022-07-06T00:52:50;13.60;99.90
52211;DHT22;38179;52.756;6.906;2022-07-06T00:55:20;13.60;99.90
52211;DHT22;38179;52.756;6.906;2022-07-06T00:57:46;13.60;99.90
52211;DHT22;38179;52.756;6.906;2022-07-06T01:00:14;13.60;99.90
52211;DHT22;38179;52.756;6.906;2022-07-06T01:02:42;13.60;99.90
52211;DHT22;38179;52.756;6.906;2022-07-06T01:05:13;13.70;99.90
52211;DHT22;38179;52.756;6.906;2022-07-06T01:07:44;13.60;99.90
52211;DHT22;38179;52.756;6.906;2022-07-06T01:10:11;13.70;99.90
52211;DHT22;38179;52.756;6.906;2022-07-06T01:12:39;13.70;99.90
52211;DHT22;38179;52.756;6.906;2022-07-06T01:15:11;13.70;99.90
52211;DHT22;38179;52.756;6.906;2022-07-06T01:17:38;13.60;99.90
52211;DHT22;38179;52.756;6.906;2022-07-06T01:22:36;13.60;99.90
52211;DHT22;38179;52.756;6.906;2022-07-06T01:25:03;13.60;99.90
52211;DHT22;38179;52.756;6.906;2022-07-06T01:27:29;13.60;99.90
52211;DHT22;38179;52.756;6.906;2022-07-06T01:29:55;13.60;99.90
52211;DHT22;38179;52.756;6.906;2022-07-06T01:32:20;13.60;99.90
52211;DHT22;38179;52.756;6.906;2022-07-06T01:34:46;13.60;99.90
52211;DHT22;38179;52.756;6.906;2022-07-06T01:37:12;13.50;99.90
52211;DHT22;38179;52.756;6.906;2022-07-06T01:39:38;13.60;99.90
52211;DHT22;38179;52.756;6.906;2022-07-06T01:42:05;13.60;99.90
52211;DHT22;38179;52.756;6.906;2022-07-06T01:44:30;13.50;99.90
52211;DHT22;38179;52.756;6.906;2022-07-06T01:46:56;13.60;99.90
52211;DHT22;38179;52.756;6.906;2022-07-06T01:49:22;13.60;99.90
52211;DHT22;38179;52.756;6.906;2022-07-06T01:51:48;13.60;99.90
52211;DHT22;38179;52.756;6.906;2022-07-06T01:54:14;13.60;99.90
52211;DHT22;38179;52.756;6.906;2022-07-06T01:56:40;13.60;99.90
52211;DHT22;38179;52.756;6.906;2022-07-06T01:59:06;13.60;99.90
52211;DHT22;38179;52.756;6.906;2022-07-06T02:01:31;13.60;99.90
52211;DHT22;38179;52.756;6.906;2022-07-06T02:03:57;13.50;99.90
52211;DHT22;38179;52.756;6.906;2022-07-06T02:06:23;13.50;99.90
52211;DHT22;38179;52.756;6.906;2022-07-06T02:08:49;13.60;99.90
52211;DHT22;38179;52.756;6.906;2022-07-06T02:11:17;13.50;99.90
52211;DHT22;38179;52.756;6.906;2022-07-06T02:13:43;13.50;99.90
52211;DHT22;38179;52.756;6.906;2022-07-06T02:16:09;13.50;99.90
52211;DHT22;38179;52.756;6.906;2022-07-06T02:18:35;13.50;99.90
52211;DHT22;38179;52.756;6.906;2022-07-06T02:21:04;13.50;99.90
52211;DHT22;38179;52.756;6.906;2022-07-06T02:23:30;13.60;99.90
52211;DHT22;38179;52.756;6.906;2022-07-06T02:25:56;13.50;99.90
52211;DHT22;38179;52.756;6.906;2022-07-06T02:28:22;13.60;99.90
52211;DHT22;38179;52.756;6.906;2022-07-06T02:30:48;13.60;99.90
52211;DHT22;38179;52.756;6.906;2022-07-06T02:33:14;13.60;99.90
52211;DHT22;38179;52.756;6.906;2022-07-06T02:35:39;13.60;99.90
52211;DHT22;38179;52.756;6.906;2022-07-06T02:38:09;13.50;99.90
52211;DHT22;38179;52.756;6.906;2022-07-06T02:40:35;13.50;99.90
52211;DHT22;38179;52.756;6.906;2022-07-06T02:43:01;13.50;99.90
52211;DHT22;38179;52.756;6.906;2022-07-06T02:45:27;13.50;99.90
52211;DHT22;38179;52.756;6.906;2022-07-06T02:47:53;13.50;99.90
52211;DHT22;38179;52.756;6.906;2022-07-06T02:50:21;13.60;99.90
52211;DHT22;38179;52.756;6.906;2022-07-06T02:52:47;13.60;99.90
52211;DHT22;38179;52.756;6.906;2022-07-06T02:55:13;13.50;99.90
52211;DHT22;38179;52.756;6.906;2022-07-06T02:57:38;13.50;99.90
52211;DHT22;38179;52.756;6.906;2022-07-06T03:00:05;13.60;99.90
52211;DHT22;38179;52.756;6.906;2022-07-06T03:02:31;13.60;99.90
52211;DHT22;38179;52.756;6.906;2022-07-06T03:04:57;13.50;99.90
52211;DHT22;38179;52.756;6.906;2022-07-06T03:07:23;13.50;99.90
52211;DHT22;38179;52.756;6.906;2022-07-06T03:09:50;13.40;99.90
52211;DHT22;38179;52.756;6.906;2022-07-06T03:12:16;13.50;99.90
52211;DHT22;38179;52.756;6.906;2022-07-06T03:14:42;13.50;99.90
52211;DHT22;38179;52.756;6.906;2022-07-06T03:17:08;13.40;99.90
52211;DHT22;38179;52.756;6.906;2022-07-06T03:19:34;13.40;99.90
52211;DHT22;38179;52.756;6.906;2022-07-06T03:22:00;13.40;99.90
52211;DHT22;38179;52.756;6.906;2022-07-06T03:24:26;13.40;99.90
52211;DHT22;38179;52.756;6.906;2022-07-06T03:26:52;13.40;99.90
52211;DHT22;38179;52.756;6.906;2022-07-06T03:29:18;13.40;99.90
52211;DHT22;38179;52.756;6.906;2022-07-06T03:31:44;13.40;99.90
52211;DHT22;38179;52.756;6.906;2022-07-06T03:34:10;13.40;99.90
52211;DHT22;38179;52.756;6.906;2022-07-06T03:36:36;13.50;99.90
52211;DHT22;38179;52.756;6.906;2022-07-06T03:39:02;13.50;99.90
52211;DHT22;38179;52.756;6.906;2022-07-06T03:41:27;13.50;99.90
52211;DHT22;38179;52.756;6.906;2022-07-06T03:43:53;13.60;99.90
52211;DHT22;38179;52.756;6.906;2022-07-06T03:46:19;13.60;99.90
52211;DHT22;38179;52.756;6.906;2022-07-06T03:48:45;13.60;99.90
52211;DHT22;38179;52.756;6.906;2022-07-06T03:51:11;13.50;99.90
52211;DHT22;38179;52.756;6.906;2022-07-06T03:53:37;13.50;99.90
52211;DHT22;38179;52.756;6.906;2022-07-06T03:56:03;13.60;99.90
52211;DHT22;38179;52.756;6.906;2022-07-06T03:58:48;13.50;99.90
52211;DHT22;38179;52.756;6.906;2022-07-06T04:01:14;13.50;99.90
52211;DHT22;38179;52.756;6.906;2022-07-06T04:03:39;13.50;99.90
52211;DHT22;38179;52.756;6.906;2022-07-06T04:06:05;13.50;99.90
52211;DHT22;38179;52.756;6.906;2022-07-06T04:08:31;13.50;99.90
52211;DHT22;38179;52.756;6.906;2022-07-06T04:10:57;13.50;99.90
52211;DHT22;38179;52.756;6.906;2022-07-06T04:13:23;13.50;99.90
52211;DHT22;38179;52.756;6.906;2022-07-06T04:15:51;13.50;99.90
52211;DHT22;38179;52.756;6.906;2022-07-06T04:18:17;13.60;99.90
52211;DHT22;38179;52.756;6.906;2022-07-06T04:20:43;13.50;99.90
52211;DHT22;38179;52.756;6.906;2022-07-06T04:23:09;13.60;99.90
52211;DHT22;38179;52.756;6.906;2022-07-06T04:25:35;13.60;99.90
52211;DHT22;38179;52.756;6.906;2022-07-06T04:28:01;13.50;99.90
52211;DHT22;38179;52.756;6.906;2022-07-06T04:30:27;13.60;99.90
52211;DHT22;38179;52.756;6.906;2022-07-06T04:32:53;13.60;99.90
52211;DHT22;38179;52.756;6.906;2022-07-06T04:35:18;13.60;99.90
52211;DHT22;38179;52.756;6.906;2022-07-06T04:37:44;13.60;99.90
52211;DHT22;38179;52.756;6.906;2022-07-06T04:40:13;13.60;99.90
52211;DHT22;38179;52.756;6.906;2022-07-06T04:42:40;13.70;99.90
52211;DHT22;38179;52.756;6.906;2022-07-06T04:45:07;13.70;99.90
52211;DHT22;38179;52.756;6.906;2022-07-06T04:47:34;13.70;99.90
52211;DHT22;38179;52.756;6.906;2022-07-06T04:50:00;13.70;99.90
52211;DHT22;38179;52.756;6.906;2022-07-06T04:52:26;13.80;99.90
52211;DHT22;38179;52.756;6.906;2022-07-06T04:54:54;13.80;99.90
52211;DHT22;38179;52.756;6.906;2022-07-06T04:57:20;13.80;99.90
52211;DHT22;38179;52.756;6.906;2022-07-06T04:59:46;13.90;99.90
52211;DHT22;38179;52.756;6.906;2022-07-06T05:02:12;13.90;99.90
52211;DHT22;38179;52.756;6.906;2022-07-06T05:04:38;14.00;99.90
52211;DHT22;38179;52.756;6.906;2022-07-06T05:07:04;14.00;99.90
52211;DHT22;38179;52.756;6.906;2022-07-06T05:09:30;14.00;99.90
52211;DHT22;38179;52.756;6.906;2022-07-06T05:11:56;14.10;99.90
52211;DHT22;38179;52.756;6.906;2022-07-06T05:14:22;14.20;99.90
52211;DHT22;38179;52.756;6.906;2022-07-06T05:16:48;14.30;99.90
52211;DHT22;38179;52.756;6.906;2022-07-06T05:19:14;14.30;99.90
52211;DHT22;38179;52.756;6.906;2022-07-06T05:21:40;14.30;99.90
52211;DHT22;38179;52.756;6.906;2022-07-06T05:24:06;14.30;99.90
52211;DHT22;38179;52.756;6.906;2022-07-06T05:26:32;14.40;99.90
52211;DHT22;38179;52.756;6.906;2022-07-06T05:28:58;14.40;99.90
52211;DHT22;38179;52.756;6.906;2022-07-06T05:31:24;14.50;99.90
52211;DHT22;38179;52.756;6.906;2022-07-06T05:33:49;14.50;99.90
52211;DHT22;38179;52.756;6.906;2022-07-06T05:36:15;14.60;99.90
52211;DHT22;38179;52.756;6.906;2022-07-06T05:38:41;14.60;99.90
52211;DHT22;38179;52.756;6.906;2022-07-06T05:41:07;14.70;99.90
52211;DHT22;38179;52.756;6.906;2022-07-06T05:43:35;14.70;99.90
52211;DHT22;38179;52.756;6.906;2022-07-06T05:46:02;14.80;99.90
52211;DHT22;38179;52.756;6.906;2022-07-06T05:48:28;14.90;99.90
52211;DHT22;38179;52.756;6.906;2022-07-06T05:51:13;14.80;99.90
52211;DHT22;38179;52.756;6.906;2022-07-06T05:53:39;14.80;99.90
52211;DHT22;38179;52.756;6.906;2022-07-06T05:56:05;14.90;99.90
52211;DHT22;38179;52.756;6.906;2022-07-06T05:58:31;15.00;99.90
52211;DHT22;38179;52.756;6.906;2022-07-06T06:00:57;15.10;99.90
52211;DHT22;38179;52.756;6.906;2022-07-06T06:03:22;15.10;99.90
52211;DHT22;38179;52.756;6.906;2022-07-06T06:05:49;15.10;99.90
52211;DHT22;38179;52.756;6.906;2022-07-06T06:08:15;15.10;99.90
52211;DHT22;38179;52.756;6.906;2022-07-06T06:10:41;15.00;99.90
52211;DHT22;38179;52.756;6.906;2022-07-06T06:13:07;15.10;99.90
52211;DHT22;38179;52.756;6.906;2022-07-06T06:15:34;15.10;99.90
52211;DHT22;38179;52.756;6.906;2022-07-06T06:18:01;15.00;99.90
52211;DHT22;38179;52.756;6.906;2022-07-06T06:20:26;15.00;99.90
52211;DHT22;38179;52.756;6.906;2022-07-06T06:22:56;15.00;99.90
52211;DHT22;38179;52.756;6.906;2022-07-06T06:25:36;15.00;99.90
52211;DHT22;38179;52.756;6.906;2022-07-06T06:28:04;15.00;99.90
52211;DHT22;38179;52.756;6.906;2022-07-06T06:30:30;15.10;99.90
52211;DHT22;38179;52.756;6.906;2022-07-06T06:35:41;15.00;99.90
52211;DHT22;38179;52.756;6.906;2022-07-06T06:38:07;15.10;99.90
52211;DHT22;38179;52.756;6.906;2022-07-06T06:40:33;15.10;99.90
52211;DHT22;38179;52.756;6.906;2022-07-06T06:42:59;15.10;99.90
52211;DHT22;38179;52.756;6.906;2022-07-06T06:45:25;15.10;99.90
52211;DHT22;38179;52.756;6.906;2022-07-06T06:47:51;15.10;99.90
52211;DHT22;38179;52.756;6.906;2022-07-06T06:50:17;15.10;99.90
52211;DHT22;38179;52.756;6.906;2022-07-06T06:52:43;15.10;99.90
52211;DHT22;38179;52.756;6.906;2022-07-06T06:55:09;15.10;99.90
52211;DHT22;38179;52.756;6.906;2022-07-06T06:57:38;15.20;99.90
52211;DHT22;38179;52.756;6.906;2022-07-06T07:00:04;15.20;99.90
52211;DHT22;38179;52.756;6.906;2022-07-06T07:02:30;15.30;99.90
52211;DHT22;38179;52.756;6.906;2022-07-06T07:04:57;15.30;99.90
52211;DHT22;38179;52.756;6.906;2022-07-06T07:07:23;15.40;99.90
52211;DHT22;38179;52.756;6.906;2022-07-06T07:09:49;15.40;99.90
52211;DHT22;38179;52.756;6.906;2022-07-06T07:12:15;15.40;99.90
52211;DHT22;38179;52.756;6.906;2022-07-06T07:14:43;15.40;99.90
52211;DHT22;38179;52.756;6.906;2022-07-06T07:17:09;15.40;99.90
52211;DHT22;38179;52.756;6.906;2022-07-06T07:19:36;15.40;99.90
52211;DHT22;38179;52.756;6.906;2022-07-06T07:22:02;15.30;99.90
52211;DHT22;38179;52.756;6.906;2022-07-06T07:24:28;15.40;99.90
52211;DHT22;38179;52.756;6.906;2022-07-06T07:26:54;15.30;99.90
52211;DHT22;38179;52.756;6.906;2022-07-06T07:29:20;15.40;99.90
52211;DHT22;38179;52.756;6.906;2022-07-06T07:31:46;15.40;99.90
52211;DHT22;38179;52.756;6.906;2022-07-06T07:34:12;15.40;99.90
52211;DHT22;38179;52.756;6.906;2022-07-06T07:36:38;15.40;99.90
52211;DHT22;38179;52.756;6.906;2022-07-06T07:39:04;15.50;99.90
52211;DHT22;38179;52.756;6.906;2022-07-06T07:41:30;15.50;99.90
52211;DHT22;38179;52.756;6.906;2022-07-06T07:43:56;15.60;99.90
52211;DHT22;38179;52.756;6.906;2022-07-06T07:46:22;15.60;99.90
52211;DHT22;38179;52.756;6.906;2022-07-06T07:48:48;15.60;99.90
52211;DHT22;38179;52.756;6.906;2022-07-06T07:51:14;15.70;99.90
52211;DHT22;38179;52.756;6.906;2022-07-06T07:53:39;15.80;99.90
52211;DHT22;38179;52.756;6.906;2022-07-06T07:56:05;15.80;99.90
52211;DHT22;38179;52.756;6.906;2022-07-06T07:58:31;15.90;99.90
52211;DHT22;38179;52.756;6.906;2022-07-06T08:00:57;16.00;99.90
52211;DHT22;38179;52.756;6.906;2022-07-06T08:03:23;16.00;99.90
52211;DHT22;38179;52.756;6.906;2022-07-06T08:05:49;15.90;99.90
52211;DHT22;38179;52.756;6.906;2022-07-06T08:08:16;15.80;99.90
52211;DHT22;38179;52.756;6.906;2022-07-06T08:10:45;15.80;99.90
52211;DHT22;38179;52.756;6.906;2022-07-06T08:13:11;15.80;99.90
52211;DHT22;38179;52.756;6.906;2022-07-06T08:15:37;15.80;99.90
52211;DHT22;38179;52.756;6.906;2022-07-06T08:18:04;15.80;99.90
52211;DHT22;38179;52.756;6.906;2022-07-06T08:20:30;15.90;99.90
52211;DHT22;38179;52.756;6.906;2022-07-06T08:22:56;16.00;99.90
52211;DHT22;38179;52.756;6.906;2022-07-06T08:25:22;16.00;99.90
52211;DHT22;38179;52.756;6.906;2022-07-06T08:27:47;16.10;99.90
52211;DHT22;38179;52.756;6.906;2022-07-06T08:30:14;16.20;99.90
52211;DHT22;38179;52.756;6.906;2022-07-06T08:32:42;16.20;99.90
52211;DHT22;38179;52.756;6.906;2022-07-06T08:35:09;16.30;99.90
52211;DHT22;38179;52.756;6.906;2022-07-06T08:37:36;16.30;99.90
52211;DHT22;38179;52.756;6.906;2022-07-06T08:40:03;16.30;99.90
52211;DHT22;38179;52.756;6.906;2022-07-06T08:42:31;16.30;99.90
52211;DHT22;38179;52.756;6.906;2022-07-06T08:45:03;16.40;99.90
52211;DHT22;38179;52.756;6.906;2022-07-06T08:47:30;16.40;99.90
52211;DHT22;38179;52.756;6.906;2022-07-06T08:49:57;16.40;99.90
52211;DHT22;38179;52.756;6.906;2022-07-06T08:52:23;16.40;99.90
52211;DHT22;38179;52.756;6.906;2022-07-06T08:54:50;16.50;99.90
52211;DHT22;38179;52.756;6.906;2022-07-06T08:57:17;16.50;99.90
52211;DHT22;38179;52.756;6.906;2022-07-06T08:59:43;16.60;99.90
52211;DHT22;38179;52.756;6.906;2022-07-06T09:02:13;16.60;99.90
52211;DHT22;38179;52.756;6.906;2022-07-06T09:04:42;16.60;99.90
52211;DHT22;38179;52.756;6.906;2022-07-06T09:07:08;16.60;99.90
52211;DHT22;38179;52.756;6.906;2022-07-06T09:09:36;16.60;99.90
52211;DHT22;38179;52.756;6.906;2022-07-06T09:12:03;16.60;99.90
52211;DHT22;38179;52.756;6.906;2022-07-06T09:14:30;16.60;99.90
52211;DHT22;38179;52.756;6.906;2022-07-06T09:17:06;16.60;99.90
52211;DHT22;38179;52.756;6.906;2022-07-06T09:19:34;16.60;99.90
52211;DHT22;38179;52.756;6.906;2022-07-06T09:22:04;16.70;99.90
52211;DHT22;38179;52.756;6.906;2022-07-06T09:24:30;16.70;99.90
52211;DHT22;38179;52.756;6.906;2022-07-06T09:26:58;16.60;99.90
52211;DHT22;38179;52.756;6.906;2022-07-06T09:29:31;16.50;99.90
52211;DHT22;38179;52.756;6.906;2022-07-06T09:32:02;16.60;99.90
52211;DHT22;38179;52.756;6.906;2022-07-06T09:34:44;16.70;99.90
52211;DHT22;38179;52.756;6.906;2022-07-06T09:37:11;16.80;99.90
52211;DHT22;38179;52.756;6.906;2022-07-06T09:39:38;16.90;99.90
52211;DHT22;38179;52.756;6.906;2022-07-06T09:42:05;17.00;99.90
52211;DHT22;38179;52.756;6.906;2022-07-06T09:44:41;17.00;99.90
52211;DHT22;38179;52.756;6.906;2022-07-06T09:47:09;17.10;99.90
52211;DHT22;38179;52.756;6.906;2022-07-06T09:49:39;17.10;99.90
52211;DHT22;38179;52.756;6.906;2022-07-06T09:52:08;17.00;99.90
52211;DHT22;38179;52.756;6.906;2022-07-06T09:54:35;17.00;99.90
52211;DHT22;38179;52.756;6.906;2022-07-06T09:57:02;17.00;99.90
52211;DHT22;38179;52.756;6.906;2022-07-06T09:59:30;17.00;99.90
52211;DHT22;38179;52.756;6.906;2022-07-06T10:02:01;17.00;99.90
52211;DHT22;38179;52.756;6.906;2022-07-06T10:04:29;16.90;99.90
52211;DHT22;38179;52.756;6.906;2022-07-06T10:06:58;17.00;99.90
52211;DHT22;38179;52.756;6.906;2022-07-06T10:09:26;17.10;99.90
52211;DHT22;38179;52.756;6.906;2022-07-06T10:11:55;17.10;99.90
52211;DHT22;38179;52.756;6.906;2022-07-06T10:14:24;17.30;99.90
52211;DHT22;38179;52.756;6.906;2022-07-06T10:16:50;17.30;99.90
52211;DHT22;38179;52.756;6.906;2022-07-06T10:19:18;17.40;99.90
52211;DHT22;38179;52.756;6.906;2022-07-06T10:21:45;17.50;99.90
52211;DHT22;38179;52.756;6.906;2022-07-06T10:24:12;17.60;99.90
52211;DHT22;38179;52.756;6.906;2022-07-06T10:26:39;17.70;99.90
52211;DHT22;38179;52.756;6.906;2022-07-06T10:29:06;17.60;99.90
52211;DHT22;38179;52.756;6.906;2022-07-06T10:31:34;17.90;99.90
52211;DHT22;38179;52.756;6.906;2022-07-06T10:34:04;18.00;99.90
52211;DHT22;38179;52.756;6.906;2022-07-06T10:36:30;18.00;99.90
52211;DHT22;38179;52.756;6.906;2022-07-06T10:38:56;17.90;99.90
52211;DHT22;38179;52.756;6.906;2022-07-06T10:41:33;17.70;99.90
52211;DHT22;38179;52.756;6.906;2022-07-06T10:44:20;17.80;99.90
52211;DHT22;38179;52.756;6.906;2022-07-06T10:46:51;17.80;99.90
52211;DHT22;38179;52.756;6.906;2022-07-06T10:49:18;17.90;99.90
52211;DHT22;38179;52.756;6.906;2022-07-06T10:51:44;17.90;99.90
52211;DHT22;38179;52.756;6.906;2022-07-06T10:54:10;17.90;99.90
52211;DHT22;38179;52.756;6.906;2022-07-06T10:56:50;17.90;99.90
52211;DHT22;38179;52.756;6.906;2022-07-06T10:59:22;18.00;99.90
52211;DHT22;38179;52.756;6.906;2022-07-06T11:02:11;18.00;99.90
52211;DHT22;38179;52.756;6.906;2022-07-06T11:04:42;18.20;99.90
52211;DHT22;38179;52.756;6.906;2022-07-06T11:07:17;18.20;99.90
52211;DHT22;38179;52.756;6.906;2022-07-06T11:10:02;18.20;99.90
52211;DHT22;38179;52.756;6.906;2022-07-06T11:12:28;18.20;99.90
52211;DHT22;38179;52.756;6.906;2022-07-06T11:14:54;18.30;99.90
52211;DHT22;38179;52.756;6.906;2022-07-06T11:17:21;18.20;99.90
52211;DHT22;38179;52.756;6.906;2022-07-06T11:22:16;18.30;99.90
52211;DHT22;38179;52.756;6.906;2022-07-06T11:24:43;18.30;99.90
52211;DHT22;38179;52.756;6.906;2022-07-06T11:27:09;18.50;99.90
52211;DHT22;38179;52.756;6.906;2022-07-06T11:29:35;18.70;99.90
52211;DHT22;38179;52.756;6.906;2022-07-06T11:32:06;18.70;99.90
52211;DHT22;38179;52.756;6.906;2022-07-06T11:34:36;18.50;99.90
52211;DHT22;38179;52.756;6.906;2022-07-06T11:37:11;18.60;99.90
52211;DHT22;38179;52.756;6.906;2022-07-06T11:39:39;18.70;99.90
52211;DHT22;38179;52.756;6.906;2022-07-06T11:42:09;18.60;99.90
52211;DHT22;38179;52.756;6.906;2022-07-06T11:44:38;18.70;99.90
52211;DHT22;38179;52.756;6.906;2022-07-06T11:47:05;18.70;99.90
52211;DHT22;38179;52.756;6.906;2022-07-06T11:49:32;18.90;99.90
52211;DHT22;38179;52.756;6.906;2022-07-06T11:52:12;19.00;99.90
52211;DHT22;38179;52.756;6.906;2022-07-06T11:54:40;19.00;99.90
52211;DHT22;38179;52.756;6.906;2022-07-06T11:57:10;19.10;99.90
52211;DHT22;38179;52.756;6.906;2022-07-06T11:59:38;19.30;99.90
52211;DHT22;38179;52.756;6.906;2022-07-06T12:02:06;19.30;99.90
52211;DHT22;38179;52.756;6.906;2022-07-06T12:04:34;19.30;99.90
52211;DHT22;38179;52.756;6.906;2022-07-06T12:07:02;19.30;99.90
52211;DHT22;38179;52.756;6.906;2022-07-06T12:09:32;19.20;99.90
52211;DHT22;38179;52.756;6.906;2022-07-06T12:11:58;19.40;99.90
52211;DHT22;38179;52.756;6.906;2022-07-06T12:14:29;19.40;99.90
52211;DHT22;38179;52.756;6.906;2022-07-06T12:16:55;19.40;99.90
52211;DHT22;38179;52.756;6.906;2022-07-06T12:19:22;19.30;99.90
52211;DHT22;38179;52.756;6.906;2022-07-06T12:21:50;19.20;99.90
52211;DHT22;38179;52.756;6.906;2022-07-06T12:24:22;19.10;99.90
52211;DHT22;38179;52.756;6.906;2022-07-06T12:26:49;19.00;99.90
52211;DHT22;38179;52.756;6.906;2022-07-06T12:29:16;19.10;99.90
52211;DHT22;38179;52.756;6.906;2022-07-06T12:31:51;19.00;99.90
52211;DHT22;38179;52.756;6.906;2022-07-06T12:34:19;19.00;99.90
52211;DHT22;38179;52.756;6.906;2022-07-06T12:39:16;19.20;99.90
52211;DHT22;38179;52.756;6.906;2022-07-06T12:41:51;19.20;99.90
52211;DHT22;38179;52.756;6.906;2022-07-06T12:44:20;19.30;99.90
52211;DHT22;38179;52.756;6.906;2022-07-06T12:46:48;19.20;99.90
52211;DHT22;38179;52.756;6.906;2022-07-06T12:49:15;19.10;99.90
52211;DHT22;38179;52.756;6.906;2022-07-06T12:52:09;18.90;99.90
52211;DHT22;38179;52.756;6.906;2022-07-06T12:54:49;18.80;99.90
52211;DHT22;38179;52.756;6.906;2022-07-06T12:59:54;18.80;99.90
52211;DHT22;38179;52.756;6.906;2022-07-06T13:02:26;18.80;99.90
52211;DHT22;38179;52.756;6.906;2022-07-06T13:05:06;19.00;99.90
52211;DHT22;38179;52.756;6.906;2022-07-06T13:07:35;18.90;99.90
52211;DHT22;38179;52.756;6.906;2022-07-06T13:10:07;18.80;99.90
52211;DHT22;38179;52.756;6.906;2022-07-06T13:12:34;18.80;99.90
52211;DHT22;38179;52.756;6.906;2022-07-06T13:15:01;18.70;99.90
52211;DHT22;38179;52.756;6.906;2022-07-06T13:17:28;19.00;99.90
52211;DHT22;38179;52.756;6.906;2022-07-06T13:19:54;19.10;99.90
52211;DHT22;38179;52.756;6.906;2022-07-06T13:22:20;19.00;99.90
52211;DHT22;38179;52.756;6.906;2022-07-06T13:24:47;19.10;99.90
52211;DHT22;38179;52.756;6.906;2022-07-06T13:27:13;19.10;99.90
52211;DHT22;38179;52.756;6.906;2022-07-06T13:29:40;19.10;99.90
52211;DHT22;38179;52.756;6.906;2022-07-06T13:32:07;19.20;99.90
52211;DHT22;38179;52.756;6.906;2022-07-06T13:34:33;19.30;99.90
52211;DHT22;38179;52.756;6.906;2022-07-06T13:37:01;19.30;99.90
52211;DHT22;38179;52.756;6.906;2022-07-06T13:39:28;19.30;99.90
52211;DHT22;38179;52.756;6.906;2022-07-06T13:41:55;19.40;99.90
52211;DHT22;38179;52.756;6.906;2022-07-06T13:44:21;19.50;99.90
52211;DHT22;38179;52.756;6.906;2022-07-06T13:46:47;19.60;99.90
52211;DHT22;38179;52.756;6.906;2022-07-06T13:49:13;19.80;99.90
52211;DHT22;38179;52.756;6.906;2022-07-06T13:51:39;19.80;99.90
52211;DHT22;38179;52.756;6.906;2022-07-06T13:54:06;19.60;99.90
52211;DHT22;38179;52.756;6.906;2022-07-06T13:56:32;19.60;99.90
52211;DHT22;38179;52.756;6.906;2022-07-06T13:58:58;19.60;99.90
52211;DHT22;38179;52.756;6.906;2022-07-06T14:01:24;19.60;99.90
52211;DHT22;38179;52.756;6.906;2022-07-06T14:03:51;19.50;99.90
52211;DHT22;38179;52.756;6.906;2022-07-06T14:06:16;19.60;99.90
52211;DHT22;38179;52.756;6.906;2022-07-06T14:08:43;19.40;99.90
52211;DHT22;38179;52.756;6.906;2022-07-06T14:11:10;19.40;99.90
52211;DHT22;38179;52.756;6.906;2022-07-06T14:13:37;19.40;99.90
52211;DHT22;38179;52.756;6.906;2022-07-06T14:16:04;19.40;99.90
52211;DHT22;38179;52.756;6.906;2022-07-06T14:18:30;19.30;99.90
52211;DHT22;38179;52.756;6.906;2022-07-06T14:20:56;19.30;99.90
52211;DHT22;38179;52.756;6.906;2022-07-06T14:23:23;19.30;99.90
52211;DHT22;38179;52.756;6.906;2022-07-06T14:25:49;19.30;99.90
52211;DHT22;38179;52.756;6.906;2022-07-06T14:28:15;19.30;99.90
52211;DHT22;38179;52.756;6.906;2022-07-06T14:30:43;19.30;99.90
52211;DHT22;38179;52.756;6.906;2022-07-06T14:33:11;19.20;99.90
52211;DHT22;38179;52.756;6.906;2022-07-06T14:35:44;19.30;99.90
52211;DHT22;38179;52.756;6.906;2022-07-06T14:38:13;19.30;99.90
52211;DHT22;38179;52.756;6.906;2022-07-06T14:40:39;19.20;99.90
52211;DHT22;38179;52.756;6.906;2022-07-06T14:43:06;19.20;99.90
52211;DHT22;38179;52.756;6.906;2022-07-06T14:45:32;19.10;99.90
52211;DHT22;38179;52.756;6.906;2022-07-06T14:47:58;19.20;99.90
52211;DHT22;38179;52.756;6.906;2022-07-06T14:50:25;19.30;99.90
52211;DHT22;38179;52.756;6.906;2022-07-06T14:52:52;19.10;99.90
52211;DHT22;38179;52.756;6.906;2022-07-06T14:55:18;19.00;99.90
52211;DHT22;38179;52.756;6.906;2022-07-06T14:57:45;19.10;99.90
52211;DHT22;38179;52.756;6.906;2022-07-06T15:00:12;19.00;99.90
52211;DHT22;38179;52.756;6.906;2022-07-06T15:02:38;19.00;99.90
52211;DHT22;38179;52.756;6.906;2022-07-06T15:05:04;19.10;99.90
52211;DHT22;38179;52.756;6.906;2022-07-06T15:07:30;19.10;99.90
52211;DHT22;38179;52.756;6.906;2022-07-06T15:09:56;19.00;99.90
52211;DHT22;38179;52.756;6.906;2022-07-06T15:12:22;19.00;99.90
52211;DHT22;38179;52.756;6.906;2022-07-06T15:14:48;19.00;99.90
52211;DHT22;38179;52.756;6.906;2022-07-06T15:17:15;18.90;99.90
52211;DHT22;38179;52.756;6.906;2022-07-06T15:19:43;18.90;99.90
52211;DHT22;38179;52.756;6.906;2022-07-06T15:22:10;18.80;99.90
52211;DHT22;38179;52.756;6.906;2022-07-06T15:24:36;18.70;99.90
52211;DHT22;38179;52.756;6.906;2022-07-06T15:27:03;18.60;99.90
52211;DHT22;38179;52.756;6.906;2022-07-06T15:29:30;18.50;99.90
52211;DHT22;38179;52.756;6.906;2022-07-06T15:31:56;18.40;99.90
52211;DHT22;38179;52.756;6.906;2022-07-06T15:34:23;18.40;99.90
52211;DHT22;38179;52.756;6.906;2022-07-06T15:36:49;18.30;99.90
52211;DHT22;38179;52.756;6.906;2022-07-06T15:39:16;18.30;99.90
52211;DHT22;38179;52.756;6.906;2022-07-06T15:41:42;18.30;99.90
52211;DHT22;38179;52.756;6.906;2022-07-06T15:44:08;18.40;99.90